createdAt,value
2022-07-29T00:04:04.230Z,19.5
2022-07-29T00:09:56.523Z,19.5
2022-07-29T00:15:47.542Z,19.5
2022-07-29T00:21:39.266Z,19.5
2022-07-29T00:27:28.632Z,19.2
2022-07-29T00:33:18.545Z,19.5
2022-07-29T00:39:11.289Z,19.5
2022-07-29T00:45:03.546Z,19
2022-07-29T00:50:54.937Z,19.3
2022-07-29T00:56:46.907Z,19.3
2022-07-29T01:02:37.754Z,19.1
2022-07-29T01:08:31.128Z,19.1
2022-07-29T01:14:21.482Z,19
2022-07-29T01:20:15.519Z,19
2022-07-29T01:26:08.741Z,19
2022-07-29T01:32:07.732Z,19
2022-07-29T01:38:16.880Z,18.7
2022-07-29T01:44:10.728Z,18.7
2022-07-29T01:50:06.312Z,18.8
2022-07-29T01:55:57.092Z,18.3
2022-07-29T02:01:54.739Z,18.5
2022-07-29T02:07:44.454Z,18.5
2022-07-29T02:13:36.198Z,18.4
2022-07-29T02:19:29.409Z,18.3
2022-07-29T02:25:21.538Z,18
2022-07-29T02:31:27.254Z,17.9
2022-07-29T02:37:19.042Z,18.1
2022-07-29T02:43:09.764Z,17.9
2022-07-29T02:49:01.962Z,17.8
2022-07-29T02:54:54.239Z,18
2022-07-29T03:00:48.206Z,17.8
2022-07-29T03:06:39.469Z,17.8
2022-07-29T03:12:32.270Z,17.6
2022-07-29T03:18:22.847Z,17.5
2022-07-29T03:24:14.599Z,17.5
2022-07-29T03:30:08.245Z,17.2
2022-07-29T03:36:08.042Z,17.3
2022-07-29T03:41:58.705Z,17.2
2022-07-29T03:47:54.815Z,17
2022-07-29T03:53:54.609Z,17.1
2022-07-29T03:59:53.601Z,16.5
2022-07-29T04:05:50.914Z,16.8
2022-07-29T04:11:57.185Z,17
2022-07-29T04:17:54.337Z,16.7
2022-07-29T04:23:52.885Z,17.1
2022-07-29T04:29:55.998Z,17.2
2022-07-29T04:35:50.181Z,17.4
2022-07-29T04:41:47.058Z,17.5
2022-07-29T04:47:42.481Z,17.4
2022-07-29T04:53:38.066Z,17.7
2022-07-29T04:59:31.286Z,18.4
2022-07-29T05:05:27.784Z,19.1
2022-07-29T05:11:21.913Z,19.9
2022-07-29T05:17:18.111Z,20
2022-07-29T05:23:09.698Z,19.5
2022-07-29T05:28:59.316Z,19.6
2022-07-29T05:35:28.052Z,19.9
2022-07-29T05:41:16.885Z,19.7
2022-07-29T05:47:06.526Z,19.9
2022-07-29T05:52:56.672Z,24.6
2022-07-29T05:59:06.594Z,21.9
2022-07-29T06:05:17.320Z,26.7
2022-07-29T06:11:08.330Z,26.2
2022-07-29T06:17:01.868Z,25
2022-07-29T06:24:02.285Z,24.6
2022-07-29T06:29:48.966Z,21.9
2022-07-29T06:35:46.698Z,22.2
2022-07-29T06:41:44.721Z,21.9
2022-07-29T06:47:36.602Z,21.5
2022-07-29T06:53:30.528Z,21.6
2022-07-29T06:59:26.275Z,20.9
2022-07-29T07:05:25.970Z,21.2
2022-07-29T07:11:18.310Z,21.1
2022-07-29T07:17:09.422Z,21
2022-07-29T07:23:00.709Z,21.2
2022-07-29T07:28:49.783Z,21.1
2022-07-29T07:34:40.457Z,21
2022-07-29T07:40:30.423Z,21.6
2022-07-29T07:46:21.959Z,21.4
2022-07-29T07:52:14.466Z,21.8
2022-07-29T07:58:04.988Z,21.5
2022-07-29T08:03:57.612Z,21.8
2022-07-29T08:10:01.529Z,21.9
2022-07-29T08:15:56.749Z,22
2022-07-29T08:21:48.780Z,21.8
2022-07-29T08:27:44.531Z,22.1
2022-07-29T08:33:36.207Z,22.2
2022-07-29T08:39:30.208Z,22.5
2022-07-29T08:45:21.162Z,22.9
2022-07-29T08:51:14.506Z,22.9
2022-07-29T08:57:04.834Z,22.7
2022-07-29T09:03:00.604Z,23.2
2022-07-29T09:08:57.859Z,23.1
2022-07-29T09:14:50.602Z,23.4
2022-07-29T09:20:44.357Z,23.3
2022-07-29T09:26:37.629Z,23.5
2022-07-29T09:32:28.921Z,23.5
2022-07-29T09:38:21.275Z,24
2022-07-29T09:44:13.445Z,24.3
2022-07-29T09:50:05.749Z,24.8
2022-07-29T09:56:00.960Z,24.5
2022-07-29T10:01:51.985Z,24.5
2022-07-29T10:07:53.294Z,24.7
2022-07-29T10:13:52.554Z,24.6
2022-07-29T10:19:45.272Z,24.6
2022-07-29T10:25:39.482Z,25
2022-07-29T10:31:42.530Z,25
2022-07-29T10:37:35.468Z,25.3
2022-07-29T10:43:36.282Z,25.5
2022-07-29T10:49:35.913Z,25.5
2022-07-29T10:55:36.327Z,25.6
2022-07-29T11:01:36.971Z,25.8
2022-07-29T11:08:26.220Z,25.7
2022-07-29T11:14:19.006Z,26
2022-07-29T12:12:54.975Z,26.1
2022-07-29T12:18:44.953Z,25.8
2022-07-29T12:24:36.154Z,26
2022-07-29T12:30:33.766Z,25.8
2022-07-29T12:36:29.471Z,26
2022-07-29T12:42:22.035Z,25.9
2022-07-29T12:48:17.543Z,26.5
2022-07-29T12:54:08.728Z,26.1
2022-07-29T13:00:00.006Z,26.4
2022-07-29T13:05:50.930Z,26
2022-07-29T13:11:46.632Z,26.2
2022-07-29T13:17:38.834Z,26.3
2022-07-29T13:23:38.599Z,26.4
2022-07-29T13:29:31.723Z,26.1
2022-07-29T13:35:26.685Z,26.3
2022-07-29T13:41:26.245Z,26.6
2022-07-29T13:47:17.088Z,26.1
2022-07-29T13:53:17.677Z,26.1
2022-07-29T13:59:15.582Z,26.2
2022-07-29T14:05:08.856Z,26.3
2022-07-29T14:11:00.156Z,26.1
2022-07-29T14:16:52.813Z,26
2022-07-29T14:22:44.948Z,26.1
2022-07-29T14:28:41.570Z,26.2
2022-07-29T14:34:32.187Z,26.3
2022-07-29T14:40:22.704Z,26.4
2022-07-29T14:46:13.532Z,26.4
2022-07-29T14:52:05.357Z,26.1
2022-07-29T14:58:03.235Z,26.5
2022-07-29T15:04:02.703Z,26.3
2022-07-29T15:09:56.860Z,26.8
2022-07-29T15:15:57.027Z,27.1
2022-07-29T15:21:49.369Z,26.6
2022-07-29T15:27:48.861Z,27.2
2022-07-29T15:33:47.976Z,26.4
2022-07-29T15:39:50.574Z,26.4
2022-07-29T15:45:47.822Z,26.6
2022-07-29T15:51:40.321Z,26.6
2022-07-29T15:57:31.121Z,26.3
2022-07-29T16:03:22.641Z,26.5
2022-07-29T16:09:13.938Z,25.9
2022-07-29T16:15:09.245Z,26
2022-07-29T16:21:00.149Z,25.9
2022-07-29T16:26:52.367Z,25.8
2022-07-29T16:32:44.687Z,25.5
2022-07-29T16:52:26.942Z,24.9
2022-07-29T17:06:10.927Z,24.9
2022-07-29T17:59:50.800Z,24.6
2022-07-29T20:20:17.190Z,22.4
2022-07-29T20:26:10.813Z,22.4
2022-07-29T20:32:03.609Z,21.8
2022-07-29T20:50:53.367Z,21.5
2022-07-29T21:09:17.495Z,21.3
2022-07-29T21:15:08.034Z,21
2022-07-29T21:20:58.449Z,21.1
2022-07-29T21:27:19.512Z,20.9
2022-07-29T21:33:14.515Z,20.9
2022-07-29T21:39:07.723Z,20.7
2022-07-29T21:45:04.051Z,20.8
2022-07-29T21:51:02.865Z,20.9
2022-07-29T21:56:56.342Z,21
2022-07-29T22:02:56.970Z,20.8
2022-07-29T22:08:49.631Z,20.6
2022-07-29T22:14:42.540Z,20.6
2022-07-29T22:20:36.791Z,20.8
2022-07-29T22:26:31.142Z,20.8
2022-07-29T22:32:22.942Z,20.7
2022-07-29T22:38:14.190Z,20.5
2022-07-29T22:44:06.522Z,20.7
2022-07-29T22:49:56.738Z,20.6
2022-07-29T22:55:49.707Z,20.6
2022-07-29T23:01:45.419Z,20.2
2022-07-29T23:07:49.463Z,19.9
2022-07-29T23:13:42.983Z,20.1
2022-07-29T23:19:34.194Z,20.2
2022-07-29T23:25:29.207Z,20.2
2022-07-29T23:31:19.975Z,20
2022-07-29T23:37:14.281Z,20.3
2022-07-29T23:43:09.098Z,19.9
2022-07-29T23:48:58.457Z,20
2022-07-29T23:54:53.291Z,19.8
